Strona główna
METAR-TAF:

METAR-TAF

Lotnisko :

Port lotniczy Saragossa

Saragossa, Hiszpania

Szerokość geograficzna: 41-40N, Długość geograficzna: 001-01W, wysokość: 263 m

Aktualna obserwacja pogody

Raport powstał 23 minut temu, godzina 16:30 UTC
Wiatr 16 kt od zachodnio-północny zachód
Temperatura 9°C
Wilgotność 61%
Ciśnienie 1015 hPa
Widzialność 10 km lub więcej
Mało chmury na wysokości 3500 ft

METAR: LEZG 181630Z 30016KT 9999 FEW035 09/02 Q1015

czas: 17:53 (16:53 UTC)

Prognoza

Raport powstał 5 godziny i 53 minut temu, godzina 11:00 UTC
Prognoza ważna od 18 godzina 12 UTC do 19 godzina 12 UTC
Wiatr 9 kt od zachodnio-północny zachód
Widzialność 10 km lub więcej
Mało chmury na wysokości 4000 ft
Przejściowo
od 18 godzina 12 UTC do 18 godzina 18 UTC
Wiatr 20 kt od zachodnio-północny zachód w porywach dochodzący do 32 kt
Stopniowe zmiany
od 19 godzina 01 UTC do 19 godzina 03 UTC
Wiatr 9 kt od zachód

TAF: LEZG 181100Z 1812/1912 30009KT 9999 FEW040 TX11/1813Z TN04/1906Z TEMPO 1812/1818 30020G32KT BECMG 1901/1903 27009KT

Obserwacja i prognoza pogody dla ponad 4000 lotnisk (raport METAR i TAF).

Dostępne stacje oznaczono żółtymi i czerwonymi punktami na mapie.

Najedź kursorem aby zobaczyć nazwę stacji.

Kliknij aby zobaczyć obserwacje i prognozy pogody.

Aby zmienić mapę: kliknij na zielony przycisk z czarnym krzyżykiem, aby powiększyć; na zielony przycisk z myślnikiem, aby pomniejszyć; na zielone strzałki, aby przejść do map sąsiednich.


METAR-TAF: